sensor_id;sensor_type;location;lat;lon;timestamp;P1;durP1;ratioP1;P2;durP2;ratioP2
38208;SDS011;24016;52.102;11.584;2024-03-08T00:02:16;26.75;;;16.35;;
38208;SDS011;24016;52.102;11.584;2024-03-08T00:04:41;25.52;;;15.20;;
38208;SDS011;24016;52.102;11.584;2024-03-08T00:07:07;25.50;;;15.55;;
38208;SDS011;24016;52.102;11.584;2024-03-08T00:09:33;27.52;;;16.60;;
38208;SDS011;24016;52.102;11.584;2024-03-08T00:11:58;26.98;;;15.90;;
38208;SDS011;24016;52.102;11.584;2024-03-08T00:14:24;25.20;;;15.80;;
38208;SDS011;24016;52.102;11.584;2024-03-08T00:16:49;27.02;;;16.25;;
38208;SDS011;24016;52.102;11.584;2024-03-08T00:19:17;26.33;;;16.42;;
38208;SDS011;24016;52.102;11.584;2024-03-08T00:21:43;25.98;;;16.23;;
38208;SDS011;24016;52.102;11.584;2024-03-08T00:24:08;26.63;;;15.63;;
38208;SDS011;24016;52.102;11.584;2024-03-08T00:26:34;29.77;;;17.10;;
38208;SDS011;24016;52.102;11.584;2024-03-08T00:28:59;26.45;;;16.33;;
38208;SDS011;24016;52.102;11.584;2024-03-08T00:31:25;26.60;;;16.45;;
38208;SDS011;24016;52.102;11.584;2024-03-08T00:33:50;25.55;;;16.52;;
38208;SDS011;24016;52.102;11.584;2024-03-08T00:36:17;29.65;;;17.27;;
38208;SDS011;24016;52.102;11.584;2024-03-08T00:38:43;27.67;;;16.17;;
38208;SDS011;24016;52.102;11.584;2024-03-08T00:41:08;26.42;;;16.10;;
38208;SDS011;24016;52.102;11.584;2024-03-08T00:43:33;26.52;;;16.42;;
38208;SDS011;24016;52.102;11.584;2024-03-08T00:45:59;28.33;;;17.55;;
38208;SDS011;24016;52.102;11.584;2024-03-08T00:48:26;29.50;;;17.55;;
38208;SDS011;24016;52.102;11.584;2024-03-08T00:50:51;31.90;;;17.17;;
38208;SDS011;24016;52.102;11.584;2024-03-08T00:53:17;29.55;;;17.50;;
38208;SDS011;24016;52.102;11.584;2024-03-08T00:55:43;27.70;;;18.20;;
38208;SDS011;24016;52.102;11.584;2024-03-08T00:58:11;28.17;;;17.92;;
38208;SDS011;24016;52.102;11.584;2024-03-08T01:00:37;25.35;;;16.02;;
38208;SDS011;24016;52.102;11.584;2024-03-08T01:03:03;29.85;;;18.05;;
38208;SDS011;24016;52.102;11.584;2024-03-08T01:05:29;27.23;;;17.42;;
38208;SDS011;24016;52.102;11.584;2024-03-08T01:07:55;29.65;;;17.08;;
38208;SDS011;24016;52.102;11.584;2024-03-08T01:10:20;25.85;;;17.08;;
38208;SDS011;24016;52.102;11.584;2024-03-08T01:12:46;27.17;;;17.25;;
38208;SDS011;24016;52.102;11.584;2024-03-08T01:15:12;26.25;;;16.83;;
38208;SDS011;24016;52.102;11.584;2024-03-08T01:17:37;26.95;;;16.25;;
38208;SDS011;24016;52.102;11.584;2024-03-08T01:20:03;27.38;;;17.52;;
38208;SDS011;24016;52.102;11.584;2024-03-08T01:22:30;29.10;;;16.83;;
38208;SDS011;24016;52.102;11.584;2024-03-08T01:24:56;24.52;;;16.80;;
38208;SDS011;24016;52.102;11.584;2024-03-08T01:27:21;26.80;;;17.25;;
38208;SDS011;24016;52.102;11.584;2024-03-08T01:29:47;32.22;;;18.55;;
38208;SDS011;24016;52.102;11.584;2024-03-08T01:32:13;26.52;;;17.17;;
38208;SDS011;24016;52.102;11.584;2024-03-08T01:34:39;28.35;;;18.15;;
38208;SDS011;24016;52.102;11.584;2024-03-08T01:37:05;27.20;;;17.23;;
38208;SDS011;24016;52.102;11.584;2024-03-08T01:39:31;27.02;;;16.63;;
38208;SDS011;24016;52.102;11.584;2024-03-08T01:41:57;29.85;;;17.88;;
38208;SDS011;24016;52.102;11.584;2024-03-08T01:44:23;27.48;;;17.27;;
38208;SDS011;24016;52.102;11.584;2024-03-08T01:46:49;28.58;;;17.20;;
38208;SDS011;24016;52.102;11.584;2024-03-08T01:49:17;26.63;;;16.83;;
38208;SDS011;24016;52.102;11.584;2024-03-08T01:51:45;26.45;;;17.27;;
38208;SDS011;24016;52.102;11.584;2024-03-08T01:54:13;26.02;;;17.60;;
38208;SDS011;24016;52.102;11.584;2024-03-08T01:56:40;26.70;;;17.23;;
38208;SDS011;24016;52.102;11.584;2024-03-08T01:59:05;25.27;;;16.60;;
38208;SDS011;24016;52.102;11.584;2024-03-08T02:01:32;24.60;;;15.75;;
38208;SDS011;24016;52.102;11.584;2024-03-08T02:03:59;24.10;;;16.92;;
38208;SDS011;24016;52.102;11.584;2024-03-08T02:06:24;26.27;;;17.10;;
38208;SDS011;24016;52.102;11.584;2024-03-08T02:08:50;29.10;;;17.02;;
38208;SDS011;24016;52.102;11.584;2024-03-08T02:11:16;25.38;;;16.92;;
38208;SDS011;24016;52.102;11.584;2024-03-08T02:13:42;26.55;;;16.77;;
38208;SDS011;24016;52.102;11.584;2024-03-08T02:16:08;25.48;;;17.20;;
38208;SDS011;24016;52.102;11.584;2024-03-08T02:18:33;27.48;;;17.15;;
38208;SDS011;24016;52.102;11.584;2024-03-08T02:21:00;24.25;;;16.67;;
38208;SDS011;24016;52.102;11.584;2024-03-08T02:23:27;23.60;;;15.43;;
38208;SDS011;24016;52.102;11.584;2024-03-08T02:25:53;29.75;;;17.50;;
38208;SDS011;24016;52.102;11.584;2024-03-08T02:28:19;26.58;;;16.65;;
38208;SDS011;24016;52.102;11.584;2024-03-08T02:33:21;30.50;;;17.05;;
38208;SDS011;24016;52.102;11.584;2024-03-08T02:35:48;26.75;;;16.05;;
38208;SDS011;24016;52.102;11.584;2024-03-08T02:38:18;25.33;;;17.25;;
38208;SDS011;24016;52.102;11.584;2024-03-08T02:40:45;28.73;;;18.08;;
38208;SDS011;24016;52.102;11.584;2024-03-08T02:43:13;27.60;;;16.83;;
38208;SDS011;24016;52.102;11.584;2024-03-08T02:45:41;27.98;;;16.83;;
38208;SDS011;24016;52.102;11.584;2024-03-08T02:48:07;23.60;;;16.73;;
38208;SDS011;24016;52.102;11.584;2024-03-08T02:50:33;33.33;;;19.10;;
38208;SDS011;24016;52.102;11.584;2024-03-08T02:53:02;25.27;;;16.88;;
38208;SDS011;24016;52.102;11.584;2024-03-08T02:55:28;29.17;;;18.13;;
38208;SDS011;24016;52.102;11.584;2024-03-08T02:57:54;29.20;;;17.42;;
38208;SDS011;24016;52.102;11.584;2024-03-08T03:00:20;29.30;;;17.30;;
38208;SDS011;24016;52.102;11.584;2024-03-08T03:02:48;29.58;;;17.10;;
38208;SDS011;24016;52.102;11.584;2024-03-08T03:05:18;27.67;;;16.38;;
38208;SDS011;24016;52.102;11.584;2024-03-08T03:07:47;26.85;;;17.00;;
38208;SDS011;24016;52.102;11.584;2024-03-08T03:10:13;27.85;;;17.40;;
38208;SDS011;24016;52.102;11.584;2024-03-08T03:12:41;29.83;;;17.65;;
38208;SDS011;24016;52.102;11.584;2024-03-08T03:15:07;25.05;;;16.58;;
38208;SDS011;24016;52.102;11.584;2024-03-08T03:17:33;26.67;;;16.40;;
38208;SDS011;24016;52.102;11.584;2024-03-08T03:19:59;26.52;;;16.63;;
38208;SDS011;24016;52.102;11.584;2024-03-08T03:22:29;25.27;;;17.42;;
38208;SDS011;24016;52.102;11.584;2024-03-08T03:24:55;29.85;;;17.00;;
38208;SDS011;24016;52.102;11.584;2024-03-08T03:27:23;28.33;;;17.23;;
38208;SDS011;24016;52.102;11.584;2024-03-08T03:29:49;26.80;;;16.77;;
38208;SDS011;24016;52.102;11.584;2024-03-08T03:32:16;34.05;;;17.77;;
38208;SDS011;24016;52.102;11.584;2024-03-08T03:34:43;27.52;;;17.15;;
38208;SDS011;24016;52.102;11.584;2024-03-08T03:37:09;30.85;;;18.38;;
38208;SDS011;24016;52.102;11.584;2024-03-08T03:39:38;29.67;;;17.63;;
38208;SDS011;24016;52.102;11.584;2024-03-08T03:42:16;28.08;;;16.60;;
38208;SDS011;24016;52.102;11.584;2024-03-08T03:44:48;26.90;;;16.50;;
38208;SDS011;24016;52.102;11.584;2024-03-08T03:49:43;26.17;;;16.67;;
38208;SDS011;24016;52.102;11.584;2024-03-08T03:52:09;28.45;;;17.75;;
38208;SDS011;24016;52.102;11.584;2024-03-08T03:54:36;29.75;;;18.20;;
38208;SDS011;24016;52.102;11.584;2024-03-08T03:57:01;29.65;;;18.30;;
38208;SDS011;24016;52.102;11.584;2024-03-08T03:59:27;27.40;;;17.50;;
38208;SDS011;24016;52.102;11.584;2024-03-08T04:01:53;27.58;;;17.15;;
38208;SDS011;24016;52.102;11.584;2024-03-08T04:04:19;26.80;;;17.38;;
38208;SDS011;24016;52.102;11.584;2024-03-08T04:06:45;26.13;;;17.15;;
38208;SDS011;24016;52.102;11.584;2024-03-08T04:09:11;27.75;;;17.20;;
38208;SDS011;24016;52.102;11.584;2024-03-08T04:11:37;31.73;;;17.63;;
38208;SDS011;24016;52.102;11.584;2024-03-08T04:14:03;29.40;;;18.58;;
38208;SDS011;24016;52.102;11.584;2024-03-08T04:16:30;27.08;;;17.80;;
38208;SDS011;24016;52.102;11.584;2024-03-08T04:18:56;26.02;;;17.52;;
38208;SDS011;24016;52.102;11.584;2024-03-08T04:21:24;30.27;;;18.80;;
38208;SDS011;24016;52.102;11.584;2024-03-08T04:23:50;31.08;;;18.40;;
38208;SDS011;24016;52.102;11.584;2024-03-08T04:26:15;26.67;;;17.23;;
38208;SDS011;24016;52.102;11.584;2024-03-08T04:28:41;31.75;;;17.35;;
38208;SDS011;24016;52.102;11.584;2024-03-08T04:31:06;32.03;;;18.83;;
38208;SDS011;24016;52.102;11.584;2024-03-08T04:33:32;31.77;;;18.77;;
38208;SDS011;24016;52.102;11.584;2024-03-08T04:36:00;26.50;;;17.73;;
38208;SDS011;24016;52.102;11.584;2024-03-08T04:38:26;29.55;;;19.27;;
38208;SDS011;24016;52.102;11.584;2024-03-08T04:40:51;35.58;;;20.70;;
38208;SDS011;24016;52.102;11.584;2024-03-08T04:43:17;30.30;;;18.00;;
38208;SDS011;24016;52.102;11.584;2024-03-08T04:45:43;34.53;;;20.08;;
38208;SDS011;24016;52.102;11.584;2024-03-08T04:48:09;33.15;;;19.50;;
38208;SDS011;24016;52.102;11.584;2024-03-08T04:50:36;32.03;;;19.20;;
38208;SDS011;24016;52.102;11.584;2024-03-08T04:53:03;30.60;;;19.55;;
38208;SDS011;24016;52.102;11.584;2024-03-08T04:55:31;33.38;;;19.75;;
38208;SDS011;24016;52.102;11.584;2024-03-08T04:57:56;33.30;;;20.27;;
38208;SDS011;24016;52.102;11.584;2024-03-08T05:00:22;33.97;;;19.45;;
38208;SDS011;24016;52.102;11.584;2024-03-08T05:02:47;29.15;;;19.30;;
38208;SDS011;24016;52.102;11.584;2024-03-08T05:05:12;34.85;;;19.50;;
38208;SDS011;24016;52.102;11.584;2024-03-08T05:07:39;30.83;;;19.52;;
38208;SDS011;24016;52.102;11.584;2024-03-08T05:10:05;32.25;;;18.75;;
38208;SDS011;24016;52.102;11.584;2024-03-08T05:12:31;33.60;;;19.15;;
38208;SDS011;24016;52.102;11.584;2024-03-08T05:14:57;29.35;;;18.20;;
38208;SDS011;24016;52.102;11.584;2024-03-08T05:17:23;39.92;;;20.95;;
38208;SDS011;24016;52.102;11.584;2024-03-08T05:19:49;33.15;;;19.20;;
38208;SDS011;24016;52.102;11.584;2024-03-08T05:22:14;34.13;;;19.42;;
38208;SDS011;24016;52.102;11.584;2024-03-08T05:24:40;31.55;;;19.27;;
38208;SDS011;24016;52.102;11.584;2024-03-08T05:27:05;31.17;;;19.50;;
38208;SDS011;24016;52.102;11.584;2024-03-08T05:29:31;35.80;;;21.33;;
38208;SDS011;24016;52.102;11.584;2024-03-08T05:31:56;35.70;;;20.73;;
38208;SDS011;24016;52.102;11.584;2024-03-08T05:34:23;33.58;;;20.98;;
38208;SDS011;24016;52.102;11.584;2024-03-08T05:36:49;31.67;;;19.35;;
38208;SDS011;24016;52.102;11.584;2024-03-08T05:39:15;35.47;;;21.73;;
38208;SDS011;24016;52.102;11.584;2024-03-08T05:41:43;35.60;;;20.08;;
38208;SDS011;24016;52.102;11.584;2024-03-08T05:44:09;30.98;;;20.55;;
38208;SDS011;24016;52.102;11.584;2024-03-08T05:46:35;39.47;;;21.80;;
38208;SDS011;24016;52.102;11.584;2024-03-08T05:49:02;34.75;;;21.60;;
38208;SDS011;24016;52.102;11.584;2024-03-08T05:51:31;36.45;;;22.10;;
38208;SDS011;24016;52.102;11.584;2024-03-08T05:53:59;33.78;;;22.17;;
38208;SDS011;24016;52.102;11.584;2024-03-08T05:56:28;36.33;;;22.05;;
38208;SDS011;24016;52.102;11.584;2024-03-08T05:58:54;36.05;;;22.38;;
38208;SDS011;24016;52.102;11.584;2024-03-08T06:01:20;35.28;;;21.55;;
38208;SDS011;24016;52.102;11.584;2024-03-08T06:03:46;31.98;;;21.23;;
38208;SDS011;24016;52.102;11.584;2024-03-08T06:06:13;37.00;;;22.25;;
38208;SDS011;24016;52.102;11.584;2024-03-08T06:08:40;34.55;;;22.65;;
38208;SDS011;24016;52.102;11.584;2024-03-08T06:11:07;35.05;;;22.30;;
38208;SDS011;24016;52.102;11.584;2024-03-08T06:13:33;36.58;;;22.38;;
38208;SDS011;24016;52.102;11.584;2024-03-08T06:15:59;36.28;;;23.35;;
38208;SDS011;24016;52.102;11.584;2024-03-08T06:18:26;38.38;;;23.40;;
38208;SDS011;24016;52.102;11.584;2024-03-08T06:20:51;37.67;;;23.08;;
38208;SDS011;24016;52.102;11.584;2024-03-08T06:23:17;33.80;;;21.33;;
38208;SDS011;24016;52.102;11.584;2024-03-08T06:25:45;33.97;;;22.08;;
38208;SDS011;24016;52.102;11.584;2024-03-08T06:28:11;34.35;;;23.33;;
38208;SDS011;24016;52.102;11.584;2024-03-08T06:30:37;31.73;;;21.73;;
38208;SDS011;24016;52.102;11.584;2024-03-08T06:33:02;37.10;;;22.30;;
38208;SDS011;24016;52.102;11.584;2024-03-08T06:35:28;33.80;;;22.27;;
38208;SDS011;24016;52.102;11.584;2024-03-08T06:37:56;35.13;;;22.95;;
38208;SDS011;24016;52.102;11.584;2024-03-08T06:40:22;37.40;;;22.52;;
38208;SDS011;24016;52.102;11.584;2024-03-08T06:42:48;35.97;;;22.63;;
38208;SDS011;24016;52.102;11.584;2024-03-08T06:45:14;35.25;;;22.25;;
38208;SDS011;24016;52.102;11.584;2024-03-08T06:47:44;36.03;;;22.25;;
38208;SDS011;24016;52.102;11.584;2024-03-08T06:50:10;32.25;;;21.35;;
38208;SDS011;24016;52.102;11.584;2024-03-08T06:52:36;34.25;;;22.58;;
38208;SDS011;24016;52.102;11.584;2024-03-08T06:55:03;35.20;;;22.92;;
38208;SDS011;24016;52.102;11.584;2024-03-08T06:57:30;34.45;;;22.90;;
38208;SDS011;24016;52.102;11.584;2024-03-08T06:59:56;33.67;;;21.60;;
38208;SDS011;24016;52.102;11.584;2024-03-08T07:02:22;31.58;;;21.90;;
38208;SDS011;24016;52.102;11.584;2024-03-08T07:04:49;34.47;;;21.60;;
38208;SDS011;24016;52.102;11.584;2024-03-08T07:07:15;29.42;;;20.65;;
38208;SDS011;24016;52.102;11.584;2024-03-08T07:09:44;29.33;;;20.20;;
38208;SDS011;24016;52.102;11.584;2024-03-08T07:12:10;30.63;;;21.33;;
38208;SDS011;24016;52.102;11.584;2024-03-08T07:14:38;32.65;;;21.13;;
38208;SDS011;24016;52.102;11.584;2024-03-08T07:17:05;30.50;;;20.63;;
38208;SDS011;24016;52.102;11.584;2024-03-08T07:19:33;32.70;;;22.00;;
38208;SDS011;24016;52.102;11.584;2024-03-08T07:21:59;34.17;;;21.48;;
38208;SDS011;24016;52.102;11.584;2024-03-08T07:24:25;28.52;;;20.25;;
38208;SDS011;24016;52.102;11.584;2024-03-08T07:27:09;30.10;;;20.63;;
38208;SDS011;24016;52.102;11.584;2024-03-08T07:29:35;30.83;;;21.90;;
38208;SDS011;24016;52.102;11.584;2024-03-08T07:32:01;33.03;;;20.95;;
38208;SDS011;24016;52.102;11.584;2024-03-08T07:34:46;29.33;;;20.88;;
38208;SDS011;24016;52.102;11.584;2024-03-08T07:37:13;29.92;;;20.75;;
38208;SDS011;24016;52.102;11.584;2024-03-08T07:39:39;27.73;;;19.95;;
38208;SDS011;24016;52.102;11.584;2024-03-08T07:42:05;32.30;;;19.85;;
38208;SDS011;24016;52.102;11.584;2024-03-08T07:44:30;30.15;;;20.58;;
38208;SDS011;24016;52.102;11.584;2024-03-08T07:46:57;30.48;;;20.52;;
38208;SDS011;24016;52.102;11.584;2024-03-08T07:49:23;30.80;;;20.08;;
38208;SDS011;24016;52.102;11.584;2024-03-08T07:51:49;29.23;;;21.00;;
38208;SDS011;24016;52.102;11.584;2024-03-08T07:54:14;32.40;;;20.25;;
38208;SDS011;24016;52.102;11.584;2024-03-08T07:56:40;32.08;;;20.75;;
38208;SDS011;24016;52.102;11.584;2024-03-08T07:59:07;29.70;;;21.40;;
38208;SDS011;24016;52.102;11.584;2024-03-08T08:01:32;29.48;;;20.15;;
38208;SDS011;24016;52.102;11.584;2024-03-08T08:03:58;29.65;;;20.02;;
38208;SDS011;24016;52.102;11.584;2024-03-08T08:06:26;28.52;;;20.05;;
38208;SDS011;24016;52.102;11.584;2024-03-08T08:08:51;27.55;;;19.85;;
38208;SDS011;24016;52.102;11.584;2024-03-08T08:11:17;25.92;;;18.88;;
38208;SDS011;24016;52.102;11.584;2024-03-08T08:13:43;26.38;;;18.70;;
38208;SDS011;24016;52.102;11.584;2024-03-08T08:16:08;29.88;;;19.55;;
38208;SDS011;24016;52.102;11.584;2024-03-08T08:18:35;27.88;;;19.60;;
38208;SDS011;24016;52.102;11.584;2024-03-08T08:21:01;25.77;;;18.00;;
38208;SDS011;24016;52.102;11.584;2024-03-08T08:23:27;27.55;;;18.75;;
38208;SDS011;24016;52.102;11.584;2024-03-08T08:25:54;25.95;;;18.60;;
38208;SDS011;24016;52.102;11.584;2024-03-08T08:28:20;31.50;;;19.90;;
38208;SDS011;24016;52.102;11.584;2024-03-08T08:30:46;31.27;;;20.45;;
38208;SDS011;24016;52.102;11.584;2024-03-08T08:33:11;26.80;;;19.45;;
38208;SDS011;24016;52.102;11.584;2024-03-08T08:35:37;27.38;;;19.90;;
38208;SDS011;24016;52.102;11.584;2024-03-08T08:38:03;28.48;;;20.00;;
38208;SDS011;24016;52.102;11.584;2024-03-08T08:40:29;29.50;;;20.38;;
38208;SDS011;24016;52.102;11.584;2024-03-08T08:42:57;26.60;;;19.20;;
38208;SDS011;24016;52.102;11.584;2024-03-08T08:45:23;30.08;;;20.63;;
38208;SDS011;24016;52.102;11.584;2024-03-08T08:47:48;30.85;;;19.60;;
38208;SDS011;24016;52.102;11.584;2024-03-08T08:50:17;32.97;;;20.75;;
38208;SDS011;24016;52.102;11.584;2024-03-08T08:52:48;31.58;;;22.40;;
38208;SDS011;24016;52.102;11.584;2024-03-08T08:55:14;32.80;;;22.85;;
38208;SDS011;24016;52.102;11.584;2024-03-08T08:57:40;33.10;;;21.65;;
38208;SDS011;24016;52.102;11.584;2024-03-08T09:00:06;30.85;;;21.23;;
38208;SDS011;24016;52.102;11.584;2024-03-08T09:02:32;35.35;;;23.10;;
38208;SDS011;24016;52.102;11.584;2024-03-08T09:04:59;33.72;;;22.77;;
38208;SDS011;24016;52.102;11.584;2024-03-08T09:07:25;32.15;;;22.42;;
38208;SDS011;24016;52.102;11.584;2024-03-08T09:09:52;29.85;;;21.60;;
38208;SDS011;24016;52.102;11.584;2024-03-08T09:12:23;35.65;;;22.35;;
38208;SDS011;24016;52.102;11.584;2024-03-08T09:14:49;34.28;;;22.67;;
38208;SDS011;24016;52.102;11.584;2024-03-08T09:17:15;36.03;;;21.73;;
38208;SDS011;24016;52.102;11.584;2024-03-08T09:19:45;32.13;;;22.50;;
38208;SDS011;24016;52.102;11.584;2024-03-08T09:22:14;33.17;;;22.40;;
38208;SDS011;24016;52.102;11.584;2024-03-08T09:24:40;31.38;;;21.35;;
38208;SDS011;24016;52.102;11.584;2024-03-08T09:27:06;29.95;;;20.15;;
38208;SDS011;24016;52.102;11.584;2024-03-08T09:29:34;27.42;;;19.60;;
38208;SDS011;24016;52.102;11.584;2024-03-08T09:32:00;32.50;;;19.73;;
38208;SDS011;24016;52.102;11.584;2024-03-08T09:34:25;27.55;;;18.95;;
38208;SDS011;24016;52.102;11.584;2024-03-08T09:36:51;26.48;;;18.80;;
38208;SDS011;24016;52.102;11.584;2024-03-08T09:39:18;23.42;;;17.30;;
38208;SDS011;24016;52.102;11.584;2024-03-08T09:41:45;23.33;;;17.48;;
38208;SDS011;24016;52.102;11.584;2024-03-08T09:44:14;23.75;;;17.23;;
38208;SDS011;24016;52.102;11.584;2024-03-08T09:46:44;24.00;;;17.98;;
38208;SDS011;24016;52.102;11.584;2024-03-08T09:49:12;27.65;;;18.08;;
38208;SDS011;24016;52.102;11.584;2024-03-08T09:51:38;23.98;;;17.08;;
38208;SDS011;24016;52.102;11.584;2024-03-08T09:54:05;23.20;;;18.10;;
38208;SDS011;24016;52.102;11.584;2024-03-08T09:56:32;24.02;;;16.85;;
38208;SDS011;24016;52.102;11.584;2024-03-08T09:58:58;23.40;;;17.27;;
38208;SDS011;24016;52.102;11.584;2024-03-08T10:01:33;23.00;;;17.02;;
38208;SDS011;24016;52.102;11.584;2024-03-08T10:03:59;21.90;;;16.00;;
38208;SDS011;24016;52.102;11.584;2024-03-08T10:06:24;23.40;;;16.60;;
38208;SDS011;24016;52.102;11.584;2024-03-08T10:08:50;26.00;;;17.73;;
38208;SDS011;24016;52.102;11.584;2024-03-08T10:11:19;26.15;;;17.55;;
38208;SDS011;24016;52.102;11.584;2024-03-08T10:13:45;28.40;;;17.83;;
38208;SDS011;24016;52.102;11.584;2024-03-08T10:16:12;24.35;;;17.38;;
38208;SDS011;24016;52.102;11.584;2024-03-08T10:18:38;25.55;;;17.55;;
38208;SDS011;24016;52.102;11.584;2024-03-08T10:23:31;22.50;;;16.90;;
38208;SDS011;24016;52.102;11.584;2024-03-08T10:25:58;21.50;;;16.60;;
38208;SDS011;24016;52.102;11.584;2024-03-08T10:28:47;25.70;;;15.05;;
38208;SDS011;24016;52.102;11.584;2024-03-08T10:31:13;22.17;;;15.82;;
38208;SDS011;24016;52.102;11.584;2024-03-08T10:33:40;20.77;;;14.80;;
38208;SDS011;24016;52.102;11.584;2024-03-08T10:36:06;23.63;;;15.23;;
38208;SDS011;24016;52.102;11.584;2024-03-08T10:38:35;24.80;;;15.68;;
38208;SDS011;24016;52.102;11.584;2024-03-08T10:41:05;22.80;;;15.27;;
38208;SDS011;24016;52.102;11.584;2024-03-08T10:43:33;21.80;;;15.38;;
38208;SDS011;24016;52.102;11.584;2024-03-08T10:48:47;19.00;;;13.73;;
38208;SDS011;24016;52.102;11.584;2024-03-08T10:51:17;19.40;;;13.68;;
38208;SDS011;24016;52.102;11.584;2024-03-08T10:53:45;20.83;;;13.70;;
38208;SDS011;24016;52.102;11.584;2024-03-08T10:56:12;17.42;;;13.10;;
38208;SDS011;24016;52.102;11.584;2024-03-08T10:58:39;18.00;;;13.48;;
38208;SDS011;24016;52.102;11.584;2024-03-08T11:01:06;18.60;;;12.57;;
38208;SDS011;24016;52.102;11.584;2024-03-08T11:06:22;17.38;;;13.13;;
38208;SDS011;24016;52.102;11.584;2024-03-08T11:08:55;18.10;;;12.82;;
38208;SDS011;24016;52.102;11.584;2024-03-08T11:11:26;17.35;;;12.98;;
38208;SDS011;24016;52.102;11.584;2024-03-08T11:13:59;17.13;;;12.63;;
38208;SDS011;24016;52.102;11.584;2024-03-08T11:19:00;15.48;;;12.02;;
38208;SDS011;24016;52.102;11.584;2024-03-08T11:21:46;19.20;;;13.85;;
38208;SDS011;24016;52.102;11.584;2024-03-08T11:24:13;18.05;;;13.43;;
38208;SDS011;24016;52.102;11.584;2024-03-08T11:26:42;20.23;;;14.75;;
38208;SDS011;24016;52.102;11.584;2024-03-08T11:32:10;19.60;;;13.13;;
38208;SDS011;24016;52.102;11.584;2024-03-08T11:34:37;17.85;;;13.30;;
38208;SDS011;24016;52.102;11.584;2024-03-08T11:37:05;18.25;;;13.68;;
38208;SDS011;24016;52.102;11.584;2024-03-08T11:39:37;18.83;;;13.35;;
38208;SDS011;24016;52.102;11.584;2024-03-08T11:42:04;19.05;;;12.70;;
38208;SDS011;24016;52.102;11.584;2024-03-08T11:44:30;19.65;;;13.80;;
38208;SDS011;24016;52.102;11.584;2024-03-08T11:46:56;18.15;;;12.98;;
38208;SDS011;24016;52.102;11.584;2024-03-08T11:49:22;20.08;;;13.43;;
38208;SDS011;24016;52.102;11.584;2024-03-08T11:51:51;18.63;;;13.02;;
38208;SDS011;24016;52.102;11.584;2024-03-08T11:54:18;18.38;;;13.27;;
38208;SDS011;24016;52.102;11.584;2024-03-08T11:56:44;18.23;;;13.32;;
38208;SDS011;24016;52.102;11.584;2024-03-08T11:59:13;15.43;;;11.73;;
38208;SDS011;24016;52.102;11.584;2024-03-08T12:01:39;18.90;;;12.43;;
38208;SDS011;24016;52.102;11.584;2024-03-08T12:04:04;16.48;;;12.48;;
38208;SDS011;24016;52.102;11.584;2024-03-08T12:06:37;17.75;;;12.00;;
38208;SDS011;24016;52.102;11.584;2024-03-08T12:09:10;15.48;;;11.48;;
38208;SDS011;24016;52.102;11.584;2024-03-08T12:11:36;16.65;;;11.90;;
38208;SDS011;24016;52.102;11.584;2024-03-08T12:14:03;17.63;;;12.35;;
38208;SDS011;24016;52.102;11.584;2024-03-08T12:16:29;17.15;;;12.20;;
38208;SDS011;24016;52.102;11.584;2024-03-08T12:18:54;17.08;;;11.77;;
38208;SDS011;24016;52.102;11.584;2024-03-08T12:21:20;16.05;;;11.63;;
38208;SDS011;24016;52.102;11.584;2024-03-08T12:23:53;16.50;;;11.70;;
38208;SDS011;24016;52.102;11.584;2024-03-08T12:26:33;16.33;;;11.82;;
38208;SDS011;24016;52.102;11.584;2024-03-08T12:29:20;16.52;;;11.73;;
38208;SDS011;24016;52.102;11.584;2024-03-08T12:31:52;18.98;;;11.73;;
38208;SDS011;24016;52.102;11.584;2024-03-08T12:34:19;16.80;;;11.95;;
38208;SDS011;24016;52.102;11.584;2024-03-08T12:36:48;16.08;;;11.75;;
38208;SDS011;24016;52.102;11.584;2024-03-08T12:39:17;16.08;;;11.57;;
38208;SDS011;24016;52.102;11.584;2024-03-08T12:41:47;16.35;;;12.43;;
38208;SDS011;24016;52.102;11.584;2024-03-08T12:44:14;16.50;;;11.80;;
38208;SDS011;24016;52.102;11.584;2024-03-08T12:46:39;17.35;;;11.63;;
38208;SDS011;24016;52.102;11.584;2024-03-08T12:49:08;17.55;;;12.13;;
38208;SDS011;24016;52.102;11.584;2024-03-08T12:51:35;18.77;;;13.48;;
38208;SDS011;24016;52.102;11.584;2024-03-08T12:54:01;17.08;;;11.93;;
38208;SDS011;24016;52.102;11.584;2024-03-08T12:56:31;16.35;;;12.00;;
38208;SDS011;24016;52.102;11.584;2024-03-08T12:58:58;18.35;;;11.90;;
38208;SDS011;24016;52.102;11.584;2024-03-08T13:01:27;16.15;;;11.70;;
38208;SDS011;24016;52.102;11.584;2024-03-08T13:03:53;18.10;;;12.00;;
38208;SDS011;24016;52.102;11.584;2024-03-08T13:06:20;18.85;;;12.05;;
38208;SDS011;24016;52.102;11.584;2024-03-08T13:08:49;18.05;;;12.40;;
38208;SDS011;24016;52.102;11.584;2024-03-08T13:11:16;16.98;;;12.02;;
38208;SDS011;24016;52.102;11.584;2024-03-08T13:13:42;17.33;;;12.65;;
38208;SDS011;24016;52.102;11.584;2024-03-08T13:16:09;16.65;;;12.57;;
38208;SDS011;24016;52.102;11.584;2024-03-08T13:18:36;18.02;;;12.27;;
38208;SDS011;24016;52.102;11.584;2024-03-08T13:21:02;17.38;;;12.43;;
38208;SDS011;24016;52.102;11.584;2024-03-08T13:23:31;17.95;;;12.90;;
38208;SDS011;24016;52.102;11.584;2024-03-08T13:25:57;17.17;;;12.75;;
38208;SDS011;24016;52.102;11.584;2024-03-08T13:28:22;17.90;;;13.48;;
38208;SDS011;24016;52.102;11.584;2024-03-08T13:30:53;19.33;;;13.45;;
38208;SDS011;24016;52.102;11.584;2024-03-08T13:33:18;16.45;;;12.60;;
38208;SDS011;24016;52.102;11.584;2024-03-08T13:35:45;19.58;;;13.40;;
38208;SDS011;24016;52.102;11.584;2024-03-08T13:38:11;16.20;;;12.50;;
38208;SDS011;24016;52.102;11.584;2024-03-08T13:40:38;18.85;;;13.88;;
38208;SDS011;24016;52.102;11.584;2024-03-08T13:43:05;19.45;;;14.13;;
38208;SDS011;24016;52.102;11.584;2024-03-08T13:45:32;18.13;;;13.73;;
38208;SDS011;24016;52.102;11.584;2024-03-08T13:47:59;19.52;;;13.80;;
38208;SDS011;24016;52.102;11.584;2024-03-08T13:50:25;18.40;;;14.00;;
38208;SDS011;24016;52.102;11.584;2024-03-08T13:52:51;18.95;;;14.55;;
38208;SDS011;24016;52.102;11.584;2024-03-08T13:55:18;18.55;;;13.75;;
38208;SDS011;24016;52.102;11.584;2024-03-08T13:57:44;19.88;;;14.00;;
38208;SDS011;24016;52.102;11.584;2024-03-08T14:00:11;20.20;;;15.18;;
38208;SDS011;24016;52.102;11.584;2024-03-08T14:02:37;19.80;;;14.02;;
38208;SDS011;24016;52.102;11.584;2024-03-08T14:05:05;20.98;;;14.80;;
38208;SDS011;24016;52.102;11.584;2024-03-08T14:07:33;21.63;;;15.85;;
38208;SDS011;24016;52.102;11.584;2024-03-08T14:10:02;19.33;;;13.95;;
38208;SDS011;24016;52.102;11.584;2024-03-08T14:12:28;21.40;;;14.75;;
38208;SDS011;24016;52.102;11.584;2024-03-08T14:14:54;21.17;;;14.95;;
38208;SDS011;24016;52.102;11.584;2024-03-08T14:17:20;20.75;;;14.05;;
38208;SDS011;24016;52.102;11.584;2024-03-08T14:19:46;19.05;;;14.13;;
38208;SDS011;24016;52.102;11.584;2024-03-08T14:22:11;19.08;;;13.93;;
38208;SDS011;24016;52.102;11.584;2024-03-08T14:24:40;20.92;;;14.52;;
38208;SDS011;24016;52.102;11.584;2024-03-08T14:27:07;21.92;;;14.57;;